Terminal Aerodrome Forecast
Issued by NWS

Home | Current Version | Previous Version | Text Only | Print | Product List | Glossary On
Versions: 1 2 3 4 5 6 7 8 9 10 11 12 13 14 15
058
FTUS42 KFFC 150520
TAFPDK
TAF
KPDK 150520Z 1506/1606 28003KT P6SM SCT150 BKN250
      TEMPO 1506/1509 BKN150
     FM151500 30012G20KT P6SM SCT180 BKN220
     FM160000 30006KT P6SM SCT250=

USA.gov is the U.S. government's official web portal to all federal, state and local government web resources and services.